Time;durP1;ratioP1;P1;durP2;ratioP2;P2;SDS_P1;SDS_P2;PMS_P1;PMS_P2;Temp;Humidity;BMP_temperature;BMP_pressure;BME280_temperature;BME280_humidity;BME280_pressure;Samples;Min_cycle;Max_cycle;Signal;HPM_P1;HPM_P2
2022/11/12 00:00:32;;;;;;;3.57;2.87;;;4.90;99.90;;;5.75;100.00;99760.69;5024615;28;20972;-88
2022/11/12 00:03:02;;;;;;;4.73;2.87;;;5.00;99.90;;;5.71;100.00;99754.06;5024666;28;20813;-89
2022/11/12 00:05:32;;;;;;;5.43;2.57;;;5.00;99.90;;;5.70;100.00;99758.41;5024745;28;22610;-88
2022/11/12 00:08:01;;;;;;;2.57;2.30;;;5.00;99.90;;;5.61;100.00;99753.09;5020813;28;20461;-88
2022/11/12 00:10:33;;;;;;;12.87;3.50;;;4.90;99.90;;;5.61;100.00;99745.31;5021005;28;20457;-87
2022/11/12 00:13:04;;;;;;;3.97;3.17;;;4.90;99.90;;;5.61;100.00;99747.91;5024275;28;20528;-87
2022/11/12 00:15:33;;;;;;;7.50;2.77;;;4.90;99.90;;;5.61;100.00;99748.72;5022309;28;20979;-88
2022/11/12 00:18:04;;;;;;;7.33;2.70;;;4.80;99.90;;;5.61;100.00;99753.09;5020490;28;20520;-88
2022/11/12 00:20:33;;;;;;;8.40;2.77;;;4.90;99.90;;;5.56;100.00;99749.06;5022793;28;20469;-87
2022/11/12 00:23:03;;;;;;;6.00;2.60;;;4.80;99.90;;;5.54;100.00;99753.56;5021907;28;20994;-88
2022/11/12 00:25:32;;;;;;;11.00;2.37;;;4.80;99.90;;;5.54;100.00;99748.38;5019640;28;20552;-87
2022/11/12 00:28:06;;;;;;;4.00;3.00;;;4.80;99.90;;;5.51;100.00;99751.19;5022760;28;20496;-87
2022/11/12 00:30:39;;;;;;;5.73;2.57;;;4.70;99.90;;;5.50;100.00;99741.75;5021744;28;20548;-88
2022/11/12 00:33:10;;;;;;;3.47;3.10;;;4.80;99.90;;;5.46;100.00;99742.91;5023000;28;20958;-88
2022/11/12 00:35:41;;;;;;;4.77;3.03;;;4.90;99.90;;;5.38;100.00;99742.63;5020419;28;20480;-87
2022/11/12 00:38:11;;;;;;;4.30;3.43;;;4.80;99.90;;;5.41;100.00;99746.78;5020984;28;20511;-89
2022/11/12 00:40:41;;;;;;;3.43;2.90;;;4.80;99.90;;;5.37;100.00;99741.00;5021616;28;20465;-88
2022/11/12 00:43:12;;;;;;;4.87;2.90;;;4.80;99.90;;;5.36;100.00;99747.09;5022087;28;20521;-88
2022/11/12 00:45:43;;;;;;;4.40;2.93;;;4.70;99.90;;;5.34;100.00;99756.78;5020503;28;20901;-89
2022/11/12 00:48:14;;;;;;;3.60;3.20;;;4.70;99.90;;;5.34;100.00;99749.00;5018555;28;20481;-89
2022/11/12 00:50:43;;;;;;;16.10;3.00;;;4.60;99.90;;;5.30;100.00;99757.09;5022764;28;20531;-88
2022/11/12 00:53:13;;;;;;;3.83;2.77;;;4.50;99.90;;;5.25;100.00;99748.81;5022338;28;20984;-88
2022/11/12 00:55:42;;;;;;;4.10;3.03;;;4.50;99.90;;;5.23;100.00;99759.31;5021357;28;20536;-89
2022/11/12 00:58:11;;;;;;;4.47;3.20;;;4.40;99.90;;;5.22;100.00;99759.41;5023301;28;20460;-88
2022/11/12 01:00:41;;;;;;;4.33;3.23;;;4.50;99.90;;;5.23;100.00;99764.50;5018565;28;20477;-87
2022/11/12 01:03:11;;;;;;;3.13;2.53;;;4.50;99.90;;;5.22;100.00;99768.03;5021183;28;21214;-87
2022/11/12 01:05:44;;;;;;;5.43;3.53;;;4.60;99.90;;;5.23;100.00;99774.03;5021112;28;20927;-88
2022/11/12 01:08:14;;;;;;;5.03;2.97;;;4.70;99.90;;;5.20;100.00;99775.09;5021973;28;20462;-89
2022/11/12 01:10:44;;;;;;;4.30;3.33;;;4.70;99.90;;;5.17;100.00;99775.31;5026559;28;20561;-88
2022/11/12 01:13:14;;;;;;;4.77;3.20;;;4.70;99.90;;;5.16;100.00;99773.66;5021530;28;21094;-88
2022/11/12 01:15:44;;;;;;;4.90;3.00;;;4.60;99.90;;;5.14;100.00;99765.16;5019612;28;20478;-88
2022/11/12 01:18:15;;;;;;;9.33;4.03;;;4.50;99.90;;;5.13;100.00;99768.69;5022477;28;21052;-88
2022/11/12 01:20:47;;;;;;;5.47;2.80;;;4.40;99.90;;;5.13;100.00;99767.88;5023221;28;20575;-88
2022/11/12 01:23:17;;;;;;;5.13;3.10;;;4.40;99.90;;;5.12;100.00;99771.38;5020389;28;20551;-88
2022/11/12 01:25:46;;;;;;;9.07;3.70;;;4.40;99.90;;;5.14;100.00;99767.75;5019936;28;20464;-88
2022/11/12 01:28:15;;;;;;;5.77;3.60;;;4.40;99.90;;;5.12;100.00;99759.25;5024422;28;20544;-87
2022/11/12 01:30:44;;;;;;;15.20;6.33;;;4.40;99.90;;;5.12;100.00;99761.03;5019946;28;20483;-88
2022/11/12 01:33:13;;;;;;;7.90;4.83;;;4.30;99.90;;;5.12;100.00;99756.66;5018264;28;20469;-89
2022/11/12 01:35:42;;;;;;;8.53;5.87;;;4.40;99.90;;;5.01;100.00;99757.44;5021969;28;20512;-88
2022/11/12 01:38:14;;;;;;;9.33;4.73;;;4.30;99.90;;;5.03;100.00;99757.34;5022391;28;20497;-88
2022/11/12 01:40:44;;;;;;;10.17;3.73;;;4.30;99.90;;;4.92;100.00;99755.50;5022983;28;20502;-89
2022/11/12 01:43:13;;;;;;;9.70;5.47;;;4.20;99.90;;;4.98;100.00;99759.41;5021662;28;20483;-88
2022/11/12 01:45:50;;;;;;;17.40;6.20;;;4.30;99.90;;;5.01;100.00;99760.03;5020674;28;20468;-88
2022/11/12 01:48:29;;;;;;;11.50;4.93;;;4.30;99.90;;;5.01;100.00;99765.22;5021870;28;20488;-87
2022/11/12 01:50:59;;;;;;;11.73;4.80;;;4.20;99.90;;;5.02;100.00;99761.69;5019624;28;21232;-89
2022/11/12 01:53:36;;;;;;;8.37;4.50;;;4.30;99.90;;;5.03;100.00;99763.31;5022065;28;20818;-88
2022/11/12 01:56:08;;;;;;;24.33;4.07;;;4.30;99.90;;;4.97;100.00;99758.59;5022158;28;20524;-89
2022/11/12 01:58:40;;;;;;;27.93;3.50;;;4.20;99.90;;;4.94;100.00;99764.00;5021369;28;20547;-88
2022/11/12 02:01:10;;;;;;;10.23;3.77;;;4.20;99.90;;;4.93;100.00;99767.50;5021143;28;20461;-88
2022/11/12 02:03:39;;;;;;;12.30;4.40;;;4.10;99.90;;;4.97;100.00;99766.34;5021367;28;20474;-89
2022/11/12 02:06:14;;;;;;;6.90;4.40;;;4.10;99.90;;;4.95;100.00;99763.06;5022598;28;20465;-89
2022/11/12 02:08:46;;;;;;;15.13;4.63;;;4.10;99.90;;;4.88;100.00;99764.44;5022408;28;20981;-88
2022/11/12 02:11:18;;;;;;;6.70;3.60;;;4.00;99.90;;;4.91;100.00;99758.19;5022344;28;20588;-90
2022/11/12 02:13:59;;;;;;;22.90;4.03;;;4.10;99.90;;;4.86;100.00;99755.13;5017381;28;20598;-89
2022/11/12 02:16:33;;;;;;;8.37;3.70;;;4.00;99.90;;;4.86;100.00;99750.75;5020690;28;21062;-88
2022/11/12 02:19:05;;;;;;;7.50;3.17;;;4.00;99.90;;;4.92;100.00;99759.84;5018658;28;20528;-88
2022/11/12 02:21:36;;;;;;;15.30;3.57;;;4.20;99.90;;;4.90;100.00;99753.94;5018118;28;20501;-89
2022/11/12 02:24:36;;;;;;;13.00;3.97;;;4.20;99.90;;;4.86;100.00;99752.53;5019846;28;20457;-88
2022/11/12 02:27:09;;;;;;;5.03;3.10;;;4.20;99.90;;;4.81;100.00;99752.84;5020130;28;20631;-88
2022/11/12 02:29:45;;;;;;;3.77;2.37;;;4.30;99.90;;;4.81;100.00;99742.47;5020345;28;20524;-88
2022/11/12 02:32:14;;;;;;;3.70;2.73;;;4.30;99.90;;;4.75;100.00;99747.28;5020199;28;20505;-87
2022/11/12 02:34:44;;;;;;;3.20;2.90;;;4.10;99.90;;;4.74;100.00;99745.59;5020355;28;20484;-88
2022/11/12 02:37:15;;;;;;;3.77;2.57;;;4.10;99.90;;;4.72;100.00;99748.28;5018645;28;20590;-88
2022/11/12 02:39:45;;;;;;;3.00;2.60;;;4.10;99.90;;;4.75;100.00;99747.28;5020469;28;20505;-88
2022/11/12 02:42:14;;;;;;;2.93;2.50;;;4.00;99.90;;;4.72;100.00;99742.31;5021290;28;20541;-87
2022/11/12 02:44:45;;;;;;;4.47;2.53;;;4.00;99.90;;;4.68;100.00;99738.28;5021536;28;20456;-87
2022/11/12 02:47:14;;;;;;;3.53;2.27;;;3.90;99.90;;;4.66;100.00;99740.97;5020397;28;20596;-88
2022/11/12 02:49:44;;;;;;;4.17;2.40;;;4.00;99.90;;;4.62;100.00;99736.13;5021518;28;20468;-89
2022/11/12 02:52:15;;;;;;;3.30;2.60;;;4.00;99.90;;;4.60;100.00;99733.63;5021270;28;20881;-88
2022/11/12 02:54:45;;;;;;;3.90;2.70;;;4.00;99.90;;;4.59;100.00;99734.56;5019515;28;20464;-87
2022/11/12 02:57:14;;;;;;;3.40;2.23;;;4.00;99.90;;;4.55;100.00;99741.72;5021104;28;20976;-88
2022/11/12 02:59:44;;;;;;;3.07;2.33;;;4.00;99.90;;;4.51;100.00;99739.47;5019973;28;20469;-88
2022/11/12 03:02:14;;;;;;;10.20;2.97;;;3.90;99.90;;;4.50;100.00;99738.63;5020812;28;22090;-89
2022/11/12 03:04:44;;;;;;;2.67;2.33;;;3.90;99.90;;;4.49;100.00;99736.97;5020583;28;20479;-87
2022/11/12 03:07:19;;;;;;;2.60;2.00;;;4.00;99.90;;;4.48;100.00;99735.31;5018713;28;20473;-88
2022/11/12 03:09:48;;;;;;;5.13;2.33;;;4.00;99.90;;;4.46;100.00;99726.81;5022866;28;20497;-88
2022/11/12 03:12:18;;;;;;;4.23;2.30;;;3.90;99.90;;;4.42;100.00;99725.38;5019814;28;20830;-88
2022/11/12 03:14:48;;;;;;;3.10;2.40;;;3.80;99.90;;;4.45;100.00;99730.34;5020165;28;20823;-87
2022/11/12 03:17:18;;;;;;;4.23;2.30;;;3.90;99.90;;;4.42;100.00;99720.19;5020532;28;20498;-89
2022/11/12 03:19:48;;;;;;;3.00;2.37;;;3.80;99.90;;;4.40;100.00;99711.72;5019653;28;21065;-87
2022/11/12 03:22:18;;;;;;;3.10;2.10;;;3.80;99.90;;;4.39;100.00;99704.88;5017658;28;20552;-88
2022/11/12 03:24:47;;;;;;;3.30;2.30;;;3.70;99.90;;;4.40;100.00;99710.88;5022093;28;20826;-88
2022/11/12 03:27:17;;;;;;;2.50;1.93;;;3.70;99.90;;;4.40;100.00;99716.06;5021189;28;20461;-89
2022/11/12 03:29:48;;;;;;;2.60;2.23;;;3.70;99.90;;;4.38;100.00;99703.22;5020231;28;21191;-88
2022/11/12 03:32:17;;;;;;;3.20;2.33;;;3.60;99.90;;;4.41;100.00;99708.19;5019585;28;20552;-87
2022/11/12 03:34:46;;;;;;;2.67;2.30;;;3.60;99.90;;;4.37;100.00;99705.94;5018685;28;20826;-88
2022/11/12 03:37:21;;;;;;;4.23;2.87;;;3.60;99.90;;;4.36;100.00;99710.28;5018650;28;20979;-88
2022/11/12 03:39:50;;;;;;;6.30;2.63;;;3.50;99.90;;;4.30;100.00;99708.13;5018275;28;20476;-89
2022/11/12 03:42:21;;;;;;;3.13;2.20;;;3.40;99.90;;;4.30;100.00;99705.53;5020149;28;20470;-88
2022/11/12 03:44:51;;;;;;;3.47;2.60;;;3.50;99.90;;;4.28;100.00;99709.97;5019001;28;21121;-89
2022/11/12 03:47:21;;;;;;;7.57;2.60;;;3.50;99.90;;;4.30;100.00;99709.88;5021104;28;20508;-89
2022/11/12 03:49:50;;;;;;;3.20;2.30;;;3.40;99.90;;;4.33;100.00;99705.31;5021877;28;20480;-88
2022/11/12 03:52:21;;;;;;;3.17;2.83;;;3.50;99.90;;;4.33;100.00;99700.13;5020365;28;20483;-89
2022/11/12 03:54:50;;;;;;;2.03;1.57;;;3.60;99.90;;;4.32;100.00;99703.66;5020296;28;20559;-88
2022/11/12 03:57:20;;;;;;;2.27;1.80;;;3.50;99.90;;;4.30;100.00;99704.69;5020540;28;20468;-88
2022/11/12 03:59:49;;;;;;;4.93;2.60;;;3.50;99.90;;;4.26;100.00;99693.72;5018265;28;20554;-89
2022/11/12 04:02:18;;;;;;;12.57;3.03;;;3.50;99.90;;;4.29;100.00;99696.09;5018417;28;20837;-89
2022/11/12 04:10:25;;;;;;;8.23;2.60;;;3.60;99.90;;;4.14;100.00;99694.56;5015969;28;20453;-87
2022/11/12 04:15:41;;;;;;;4.07;2.63;;;3.50;99.90;;;4.12;100.00;99690.44;5021823;28;20492;-82
2022/11/12 04:23:49;;;;;;;6.27;2.53;;;3.50;99.90;;;4.03;100.00;99697.03;5018809;28;20876;-86
2022/11/12 04:26:23;;;;;;;14.80;2.73;;;3.50;99.90;;;4.03;100.00;99703.06;5019730;28;20461;-88
2022/11/12 04:31:40;;;;;;;8.70;2.40;;;3.40;99.90;;;4.00;100.00;99700.69;5021415;28;20555;-88
2022/11/12 04:34:28;;;;;;;5.63;2.77;;;3.30;99.90;;;4.01;100.00;99704.94;5021970;28;20478;-89
2022/11/12 04:36:58;;;;;;;8.70;2.43;;;3.40;99.90;;;4.02;100.00;99705.78;5021768;28;20829;-87
2022/11/12 04:39:29;;;;;;;7.13;2.73;;;3.40;99.90;;;4.00;100.00;99708.44;5020475;28;20504;-89
2022/11/12 04:45:00;;;;;;;5.47;2.33;;;3.30;99.90;;;3.99;100.00;99705.97;5019998;28;20578;-87
2022/11/12 04:47:34;;;;;;;2.40;2.10;;;3.20;99.90;;;4.00;100.00;99698.09;5022827;28;20463;-89
2022/11/12 04:50:05;;;;;;;6.30;2.40;;;3.30;99.90;;;4.00;100.00;99697.25;5022399;28;20467;-90
2022/11/12 04:52:35;;;;;;;2.20;2.00;;;3.30;99.90;;;3.93;100.00;99701.19;5024310;28;20546;-86
2022/11/12 04:55:08;;;;;;;5.27;2.67;;;3.30;99.90;;;3.88;100.00;99701.53;5020251;28;20565;-87
2022/11/12 04:57:39;;;;;;;4.80;2.07;;;3.10;99.90;;;3.83;100.00;99701.00;5020560;28;20490;-87
2022/11/12 05:00:10;;;;;;;6.97;2.40;;;3.10;99.90;;;3.86;100.00;99700.78;5020777;28;20465;-87
2022/11/12 05:02:41;;;;;;;7.10;2.20;;;3.00;99.90;;;3.91;100.00;99692.72;5022113;28;20466;-82
2022/11/12 05:05:10;;;;;;;26.47;2.53;;;3.10;99.90;;;3.86;100.00;99699.97;5023754;28;20520;-88
2022/11/12 05:07:39;;;;;;;36.20;2.83;;;3.00;99.90;;;3.74;100.00;99693.88;5023846;28;20467;-88
2022/11/12 05:10:11;;;;;;;2.30;2.10;;;3.00;99.90;;;3.67;100.00;99694.38;5024876;28;20579;-87
2022/11/12 05:12:40;;;;;;;5.10;2.27;;;2.90;99.90;;;3.74;100.00;99695.63;5018360;28;20467;-88
2022/11/12 05:15:13;;;;;;;17.77;2.40;;;2.90;99.90;;;3.74;100.00;99693.03;5020438;28;20582;-87
2022/11/12 05:17:44;;;;;;;28.37;3.17;;;2.90;99.90;;;3.67;100.00;99692.63;5020241;28;20478;-85
2022/11/12 05:20:14;;;;;;;6.60;2.23;;;2.80;99.90;;;3.63;100.00;99693.75;5021080;28;20473;-85
2022/11/12 05:22:44;;;;;;;23.23;2.73;;;2.70;99.90;;;3.65;100.00;99694.47;5019781;28;20472;-85
2022/11/12 05:25:33;;;;;;;13.93;2.50;;;2.80;99.90;;;3.60;100.00;99687.97;5020573;28;20921;-85
2022/11/12 05:28:04;;;;;;;36.43;2.27;;;2.70;99.90;;;3.59;100.00;99687.13;5021174;28;20492;-86
2022/11/12 05:30:35;;;;;;;19.87;2.30;;;2.70;99.90;;;3.50;100.00;99683.41;5020348;28;20461;-85
2022/11/12 05:33:05;;;;;;;10.63;2.20;;;2.60;99.90;;;3.42;100.00;99675.31;5021420;28;20533;-85
2022/11/12 05:35:35;;;;;;;3.80;2.23;;;2.50;99.90;;;3.46;100.00;99681.97;5020678;28;20454;-85
2022/11/12 05:38:05;;;;;;;11.97;2.07;;;2.60;99.90;;;3.38;100.00;99673.88;5019561;28;20465;-85
2022/11/12 05:40:36;;;;;;;16.23;2.00;;;2.50;99.90;;;3.32;100.00;99679.44;5022454;28;20475;-85
2022/11/12 05:43:06;;;;;;;6.80;2.10;;;2.50;99.90;;;3.36;100.00;99685.25;5018786;28;20494;-86
2022/11/12 05:45:35;;;;;;;2.33;2.13;;;2.50;99.90;;;3.39;100.00;99680.72;5020435;28;20459;-85
2022/11/12 05:48:05;;;;;;;6.93;2.23;;;2.50;99.90;;;3.43;100.00;99681.34;5019290;28;20468;-85
2022/11/12 05:50:34;;;;;;;4.40;1.87;;;2.60;99.90;;;3.43;100.00;99683.91;5019101;28;20470;-85
2022/11/12 05:53:23;;;;;;;4.10;2.30;;;2.60;99.90;;;3.31;100.00;99692.47;5017377;28;20468;-85
2022/11/12 05:55:55;;;;;;;3.97;2.83;;;2.50;99.90;;;3.26;100.00;99695.38;5019772;28;20584;-85
2022/11/12 05:58:25;;;;;;;7.70;2.80;;;2.40;99.90;;;3.20;100.00;99700.09;5017448;28;20483;-85
2022/11/12 06:00:56;;;;;;;5.67;2.27;;;2.30;99.90;;;3.19;100.00;99691.53;5019896;28;20466;-85
2022/11/12 06:03:25;;;;;;;3.07;2.07;;;2.30;99.90;;;3.15;100.00;99695.25;5020466;28;20500;-84
2022/11/12 06:05:54;;;;;;;2.00;1.63;;;2.20;99.90;;;3.12;100.00;99692.84;5018211;28;21432;-84
2022/11/12 06:08:23;;;;;;;1.90;1.80;;;2.30;99.90;;;3.17;100.00;99701.13;5019071;28;20477;-84
2022/11/12 06:10:56;;;;;;;2.10;1.90;;;2.30;99.90;;;3.16;100.00;99691.72;5019746;28;20558;-85
2022/11/12 06:13:26;;;;;;;2.97;2.10;;;2.20;99.90;;;3.20;100.00;99693.16;5019585;28;20585;-85
2022/11/12 06:15:56;;;;;;;2.80;2.47;;;2.30;99.90;;;3.23;100.00;99700.72;5019553;28;20825;-85
2022/11/12 06:18:25;;;;;;;2.40;2.20;;;2.40;99.90;;;3.27;100.00;99702.19;5018517;28;20461;-85
2022/11/12 06:21:21;;;;;;;6.27;2.53;;;2.50;99.90;;;3.21;100.00;99702.59;5020301;28;20469;-85
2022/11/12 06:23:55;;;;;;;3.17;2.10;;;2.30;99.90;;;3.23;100.00;99711.06;5020020;28;20877;-84
2022/11/12 06:26:29;;;;;;;9.07;2.53;;;2.40;99.90;;;3.27;100.00;99715.09;5019286;28;20512;-85
2022/11/12 06:28:59;;;;;;;7.47;3.00;;;2.60;99.90;;;3.25;100.00;99719.56;5018747;28;21027;-83
2022/11/12 06:31:28;;;;;;;12.63;2.13;;;2.50;99.90;;;3.21;100.00;99722.44;5019017;28;20476;-85
2022/11/12 06:33:57;;;;;;;5.77;2.47;;;2.40;99.90;;;3.15;100.00;99723.66;5018345;28;20463;-85
2022/11/12 06:36:27;;;;;;;4.73;2.00;;;2.40;99.90;;;3.08;100.00;99725.00;5019571;28;20556;-84
2022/11/12 06:38:57;;;;;;;2.77;2.47;;;2.20;99.90;;;3.03;100.00;99730.44;5019547;28;20489;-84
2022/11/12 06:41:28;;;;;;;12.33;2.50;;;2.20;99.90;;;3.00;100.00;99729.81;5019914;28;20473;-85
2022/11/12 06:43:58;;;;;;;14.93;2.70;;;2.10;99.90;;;3.08;100.00;99740.50;5019490;28;20516;-85
2022/11/12 06:46:29;;;;;;;9.20;2.70;;;2.20;99.90;;;2.95;100.00;99747.38;5017371;28;20466;-85
2022/11/12 06:49:00;;;;;;;3.73;2.17;;;2.10;99.90;;;2.97;100.00;99753.25;5019574;28;20478;-84
2022/11/12 06:51:29;;;;;;;10.90;2.60;;;2.10;99.90;;;2.92;100.00;99763.03;5020143;28;20548;-85
2022/11/12 06:53:59;;;;;;;2.00;1.80;;;2.00;99.90;;;2.95;100.00;99765.47;5020691;28;20462;-85
2022/11/12 06:56:30;;;;;;;2.20;2.00;;;2.10;99.90;;;3.02;100.00;99766.69;5019843;28;20565;-85
2022/11/12 06:59:00;;;;;;;2.40;2.10;;;2.10;99.90;;;3.03;100.00;99769.19;5020644;28;21004;-85
2022/11/12 07:01:30;;;;;;;2.70;2.20;;;2.20;99.90;;;3.09;100.00;99760.22;5019117;28;20557;-86
2022/11/12 07:03:59;;;;;;;2.33;2.10;;;2.30;99.90;;;3.14;100.00;99765.09;5020577;28;20482;-85
2022/11/12 07:06:28;;;;;;;2.40;2.20;;;2.30;99.90;;;3.13;100.00;99766.84;5020566;28;20854;-85
2022/11/12 07:08:58;;;;;;;4.27;2.40;;;2.20;99.90;;;3.19;100.00;99770.81;5017767;28;20457;-85
2022/11/12 07:11:30;;;;;;;5.17;2.20;;;2.40;99.90;;;3.25;100.00;99771.25;5019349;28;20550;-85
2022/11/12 07:13:59;;;;;;;3.77;3.40;;;2.50;99.90;;;3.27;100.00;99776.31;5019640;28;20553;-86
2022/11/12 07:16:28;;;;;;;3.70;3.00;;;2.50;99.90;;;3.31;100.00;99786.34;5020276;28;20462;-85
2022/11/12 07:18:59;;;;;;;2.10;1.97;;;2.60;99.90;;;3.33;100.00;99781.09;5019938;28;21402;-85
2022/11/12 07:21:29;;;;;;;2.50;2.03;;;2.60;99.90;;;3.34;100.00;99782.75;5019774;28;20462;-85
2022/11/12 07:23:58;;;;;;;6.13;2.30;;;2.70;99.90;;;3.33;100.00;99781.91;5019269;28;20476;-85
2022/11/12 07:26:30;;;;;;;2.40;2.13;;;2.70;99.90;;;3.38;100.00;99786.78;5019583;28;20483;-86
2022/11/12 07:28:59;;;;;;;4.27;2.00;;;2.70;99.90;;;3.39;100.00;99794.47;5016651;28;20859;-85
2022/11/12 07:31:28;;;;;;;2.93;2.60;;;2.80;99.90;;;3.43;100.00;99793.34;5017728;28;20463;-85
2022/11/12 07:33:57;;;;;;;3.43;2.30;;;2.70;99.90;;;3.45;100.00;99782.88;5019713;28;20471;-85
2022/11/12 07:36:27;;;;;;;7.93;3.00;;;2.70;99.90;;;3.47;100.00;99778.47;5017391;28;20494;-85
2022/11/12 07:38:55;;;;;;;5.37;2.60;;;2.70;99.90;;;3.44;100.00;99782.06;5017855;28;20550;-83
2022/11/12 07:41:25;;;;;;;4.20;2.53;;;2.70;99.90;;;3.47;100.00;99784.44;5019077;28;20548;-84
2022/11/12 07:43:56;;;;;;;4.20;2.53;;;2.80;99.90;;;3.41;100.00;99787.41;5020024;28;20490;-85
2022/11/12 07:46:28;;;;;;;6.23;2.93;;;2.60;99.90;;;3.41;100.00;99787.41;5018547;28;20468;-85
2022/11/12 07:48:56;;;;;;;4.73;3.00;;;2.60;99.90;;;3.44;100.00;99787.22;5018266;28;20454;-84
2022/11/12 07:51:28;;;;;;;3.73;2.30;;;2.70;99.90;;;3.43;100.00;99795.09;5020328;28;20993;-85
2022/11/12 07:53:59;;;;;;;4.13;2.83;;;2.70;99.90;;;3.47;100.00;99786.22;5020480;28;20465;-85
2022/11/12 07:56:29;;;;;;;7.03;2.93;;;2.70;99.90;;;3.50;100.00;99786.00;5020721;28;20471;-85
2022/11/12 07:59:00;;;;;;;4.67;2.90;;;2.80;99.90;;;3.56;100.00;99793.38;5020652;28;20458;-85
2022/11/12 08:01:32;;;;;;;9.10;3.53;;;2.80;99.90;;;3.60;100.00;99791.41;5020058;28;20494;-85
2022/11/12 08:04:03;;;;;;;8.23;3.40;;;2.90;99.90;;;3.69;100.00;99785.63;5020575;28;20475;-85
2022/11/12 08:06:33;;;;;;;8.40;3.70;;;2.90;99.90;;;3.75;100.00;99786.03;5022270;28;20476;-85
2022/11/12 08:09:07;;;;;;;8.90;3.53;;;3.00;99.90;;;3.82;100.00;99787.28;5022378;28;20501;-85
2022/11/12 08:11:37;;;;;;;8.20;3.90;;;3.10;99.90;;;3.88;100.00;99780.91;5021232;28;20469;-84
2022/11/12 08:14:08;;;;;;;8.03;3.30;;;3.30;99.90;;;3.89;100.00;99783.38;5022895;28;20474;-85
2022/11/12 08:16:36;;;;;;;8.43;3.57;;;3.30;99.90;;;3.94;100.00;99778.75;5022389;28;20905;-85
2022/11/12 08:19:06;;;;;;;7.23;3.43;;;3.30;99.90;;;3.98;100.00;99781.94;5021404;28;21031;-85
2022/11/12 08:21:36;;;;;;;4.20;2.50;;;3.40;99.90;;;4.03;100.00;99775.53;5021809;28;21030;-85
2022/11/12 08:24:07;;;;;;;8.00;3.40;;;3.50;99.90;;;4.06;100.00;99774.50;5020887;28;20459;-85
2022/11/12 08:26:37;;;;;;;4.57;3.00;;;3.50;99.90;;;4.07;100.00;99773.56;5023098;28;20990;-85
2022/11/12 08:29:09;;;;;;;15.27;3.40;;;3.60;99.90;;;4.11;100.00;99776.78;5023136;28;20468;-85
2022/11/12 08:31:38;;;;;;;5.73;3.23;;;3.60;99.90;;;4.15;100.00;99771.28;5021317;28;20549;-85
2022/11/12 08:34:15;;;;;;;8.50;2.70;;;3.60;99.90;;;4.14;100.00;99777.38;5021676;28;20565;-85
2022/11/12 08:36:51;;;;;;;6.83;2.47;;;3.60;99.90;;;4.15;100.00;99768.69;5022567;28;20471;-85
2022/11/12 08:39:21;;;;;;;10.13;2.80;;;3.70;99.90;;;4.14;100.00;99779.16;5021961;28;20496;-85
2022/11/12 08:41:52;;;;;;;7.63;3.00;;;3.70;99.90;;;4.15;100.00;99771.28;5022548;28;20494;-85
2022/11/12 08:44:23;;;;;;;6.27;3.83;;;3.70;99.90;;;4.16;100.00;99774.72;5020013;28;20556;-84
2022/11/12 08:46:52;;;;;;;12.80;3.97;;;3.70;99.90;;;4.17;100.00;99782.34;5024560;28;20511;-85
2022/11/12 08:49:22;;;;;;;11.70;4.00;;;3.70;99.90;;;4.22;100.00;99784.63;5020823;28;20834;-85
2022/11/12 08:51:52;;;;;;;5.87;3.50;;;3.70;99.90;;;4.24;100.00;99780.19;5020479;28;20493;-86
2022/11/12 08:54:21;;;;;;;11.17;4.00;;;3.80;99.90;;;4.25;100.00;99774.91;5020024;28;20568;-84
2022/11/12 08:56:52;;;;;;;7.77;3.87;;;3.90;99.90;;;4.31;100.00;99778.81;5020356;28;20555;-85
2022/11/12 08:59:22;;;;;;;6.43;3.53;;;3.80;99.90;;;4.32;100.00;99776.16;5019514;28;20528;-84
2022/11/12 09:01:51;;;;;;;9.60;3.60;;;3.80;99.90;;;4.36;100.00;99769.81;5021274;28;20496;-86
2022/11/12 09:04:20;;;;;;;11.83;4.50;;;3.90;99.90;;;4.38;100.00;99775.72;5021825;28;20481;-86
2022/11/12 09:06:49;;;;;;;7.07;3.90;;;3.90;99.90;;;4.42;100.00;99777.16;5020990;28;20465;-85
2022/11/12 09:09:22;;;;;;;334.67;109.03;;;3.90;99.90;;;4.45;100.00;99765.75;5021684;28;20504;-85
2022/11/12 09:11:52;;;;;;;129.00;78.87;;;3.80;99.90;;;4.47;100.00;99767.34;5019308;28;20524;-86
2022/11/12 09:14:22;;;;;;;7.20;2.07;;;3.80;99.90;;;4.52;100.00;99759.22;5020376;28;21080;-86
2022/11/12 09:16:52;;;;;;;4.00;3.07;;;3.90;99.90;;;4.53;100.00;99759.13;5015521;28;20498;-85
2022/11/12 09:19:22;;;;;;;117.60;54.97;;;3.80;99.90;;;4.60;100.00;99761.28;5022051;28;20471;-85
2022/11/12 09:21:51;;;;;;;5.60;2.43;;;3.90;99.90;;;4.61;100.00;99762.94;5019438;28;20498;-86
2022/11/12 09:24:19;;;;;;;6.23;3.10;;;3.90;99.90;;;4.66;100.00;99756.50;5019427;28;20668;-85
2022/11/12 09:26:53;;;;;;;5.37;3.03;;;4.00;99.90;;;4.75;100.00;99762.81;5020651;28;20524;-85
2022/11/12 09:29:23;;;;;;;7.03;3.00;;;4.20;99.90;;;4.79;100.00;99761.66;5020004;28;20581;-85
2022/11/12 09:31:52;;;;;;;5.97;3.73;;;4.30;99.90;;;4.82;100.00;99762.28;5017925;28;20528;-85
2022/11/12 09:34:22;;;;;;;4.87;3.40;;;4.40;99.90;;;4.86;100.00;99760.31;5019973;28;20471;-85
2022/11/12 09:36:52;;;;;;;4.33;3.27;;;4.50;99.90;;;4.89;100.00;99760.09;5021690;28;20469;-85
2022/11/12 09:39:20;;;;;;;6.53;4.13;;;4.50;99.90;;;4.91;100.00;99753.84;5022805;28;20562;-85
2022/11/12 09:41:50;;;;;;;4.50;3.40;;;4.50;99.90;;;4.94;100.00;99751.03;5019802;28;20593;-85
2022/11/12 09:44:23;;;;;;;6.43;2.60;;;4.50;99.90;;;4.98;100.00;99755.06;5023115;28;20472;-86
2022/11/12 09:47:00;;;;;;;3.20;2.87;;;4.50;99.90;;;5.03;100.00;99754.75;5021400;28;20466;-86
2022/11/12 09:49:36;;;;;;;3.80;2.93;;;4.50;99.90;;;5.05;100.00;99755.44;5023373;28;20465;-86
2022/11/12 09:52:16;;;;;;;6.13;3.23;;;4.50;99.90;;;5.10;100.00;99748.19;5020696;28;20508;-85
2022/11/12 09:54:52;;;;;;;10.83;3.90;;;4.60;99.90;;;5.16;100.00;99752.09;5022462;28;20536;-85
2022/11/12 09:57:22;;;;;;;3.80;2.83;;;4.60;99.90;;;5.19;100.00;99744.91;5021996;28;20498;-86
2022/11/12 09:59:53;;;;;;;6.27;3.10;;;4.70;99.90;;;5.20;100.00;99740.56;5019598;28;20494;-85
2022/11/12 10:02:35;;;;;;;6.37;3.93;;;4.70;99.90;;;5.26;100.00;99735.75;5021079;28;20587;-86
2022/11/12 10:05:25;;;;;;;9.17;3.10;;;4.80;99.90;;;5.30;100.00;99729.41;5021540;28;20474;-85
2022/11/12 10:08:21;;;;;;;6.40;3.97;;;4.90;99.90;;;5.36;100.00;99728.94;5020166;28;20464;-86
2022/11/12 10:11:02;;;;;;;4.63;3.17;;;5.00;99.90;;;5.39;100.00;99728.72;5019641;28;20498;-81
2022/11/12 10:13:54;;;;;;;6.50;3.47;;;5.00;99.90;;;5.40;100.00;99725.19;5019673;28;20459;-86
2022/11/12 10:16:49;;;;;;;5.77;3.97;;;5.10;99.90;;;5.45;100.00;99720.47;5017981;28;20481;-86
2022/11/12 10:19:47;;;;;;;5.37;2.93;;;5.10;99.90;;;5.46;100.00;99718.72;5018771;28;20549;-86
2022/11/12 10:22:40;;;;;;;4.73;3.10;;;5.10;99.90;;;5.50;100.00;99720.97;5021313;28;20585;-85
2022/11/12 10:25:16;;;;;;;5.50;3.53;;;5.10;99.90;;;5.55;100.00;99729.22;5019257;28;20459;-86
2022/11/12 10:27:47;;;;;;;6.00;3.33;;;5.20;99.90;;;5.61;100.00;99727.13;5021920;28;20458;-87
2022/11/12 10:30:18;;;;;;;3.87;2.97;;;5.30;99.90;;;5.65;100.00;99724.22;5022948;28;20486;-86
2022/11/12 10:32:53;;;;;;;9.40;4.00;;;5.40;99.90;;;5.68;100.00;99721.38;5020112;28;20462;-85
2022/11/12 10:35:24;;;;;;;3.93;2.77;;;5.40;99.90;;;5.70;100.00;99726.44;5017702;28;20558;-86
2022/11/12 10:38:02;;;;;;;2.40;2.20;;;5.40;99.90;;;5.73;100.00;99732.22;5017706;28;20982;-86
2022/11/12 10:40:36;;;;;;;2.73;2.50;;;5.40;99.90;;;5.76;100.00;99724.22;5018233;28;20466;-86
2022/11/12 10:43:21;;;;;;;3.43;2.70;;;5.50;99.90;;;5.80;100.00;99717.03;5016998;28;20498;-85
2022/11/12 10:45:51;;;;;;;3.60;2.80;;;5.40;99.90;;;5.83;100.00;99728.00;5018519;28;20522;-86
2022/11/12 10:48:32;;;;;;;4.10;3.10;;;5.30;99.90;;;5.88;100.00;99712.94;5019690;28;20474;-88
2022/11/12 10:51:03;;;;;;;7.60;3.10;;;5.40;99.90;;;5.92;100.00;99711.78;5021339;28;20550;-89
2022/11/12 10:53:37;;;;;;;5.70;3.43;;;5.40;99.90;;;5.96;100.00;99708.03;5019848;28;20545;-88
2022/11/12 10:56:26;;;;;;;5.07;3.27;;;5.30;99.90;;;6.01;100.00;99699.84;5018595;28;20466;-88
2022/11/12 10:59:17;;;;;;;4.17;2.60;;;5.50;99.90;;;6.08;100.00;99701.03;5021045;28;20474;-87
2022/11/12 11:01:56;;;;;;;3.50;2.83;;;5.60;99.90;;;6.12;100.00;99707.66;5018871;28;20532;-88
2022/11/12 11:04:34;;;;;;;2.90;2.60;;;5.70;99.90;;;6.17;100.00;99710.75;5021690;28;20854;-88